Time;durP1;ratioP1;P1;durP2;ratioP2;P2;SDS_P1;SDS_P2;PMS_P1;PMS_P2;Temp;Humidity;BMP_temperature;BMP_pressure;BME280_temperature;BME280_humidity;BME280_pressure;Samples;Min_cycle;Max_cycle;Signal;HPM_P1;HPM_P2
2022/01/28 00:01:02;;;;;;;6.03;5.45;;;3.20;99.90;;;;;;5058900;22;20264;-81
2022/01/28 00:03:31;;;;;;;5.88;5.38;;;3.20;99.90;;;;;;5046756;28;20573;-81
2022/01/28 00:05:58;;;;;;;6.85;5.53;;;3.20;99.90;;;;;;5046530;28;20227;-81
2022/01/28 00:08:26;;;;;;;6.85;4.38;;;3.20;99.90;;;;;;5045250;28;20208;-82
2022/01/28 00:10:53;;;;;;;4.75;4.25;;;3.20;99.90;;;;;;5045613;28;20232;-82
2022/01/28 00:13:23;;;;;;;5.50;4.57;;;3.20;99.90;;;;;;5046231;28;20230;-82
2022/01/28 00:38:04;;;;;;;6.15;5.45;;;3.30;99.90;;;;;;5122561;28;20666;-82
2022/01/28 00:40:33;;;;;;;4.63;4.13;;;3.40;99.90;;;;;;5121711;28;20254;-83
2022/01/28 00:43:00;;;;;;;7.65;6.65;;;3.30;99.90;;;;;;5122382;28;20205;-82
2022/01/28 00:45:27;;;;;;;8.23;5.93;;;3.40;99.90;;;;;;5122785;28;20210;-83
2022/01/28 00:47:55;;;;;;;6.93;5.85;;;3.30;99.90;;;;;;5119417;28;20211;-83
2022/01/28 00:50:22;;;;;;;7.40;6.10;;;3.30;99.90;;;;;;5118125;28;20306;-82
2022/01/28 00:52:49;;;;;;;5.72;4.13;;;3.30;99.90;;;;;;5120270;28;20225;-83
2022/01/28 00:55:17;;;;;;;4.15;3.75;;;3.20;99.90;;;;;;5123949;28;20202;-83
2022/01/28 00:57:44;;;;;;;5.80;5.28;;;3.20;99.90;;;;;;5123931;28;20211;-83
2022/01/28 01:00:12;;;;;;;7.60;4.68;;;3.20;99.90;;;;;;5122456;28;20246;-82
2022/01/28 01:02:39;;;;;;;6.05;5.45;;;3.20;99.90;;;;;;5122145;28;20219;-82
2022/01/28 01:05:06;;;;;;;5.75;4.72;;;3.20;99.90;;;;;;5117960;28;20194;-83
2022/01/28 01:07:33;;;;;;;5.18;4.75;;;3.20;99.90;;;;;;5120205;28;20215;-83
2022/01/28 01:10:00;;;;;;;5.57;4.00;;;3.20;99.90;;;;;;5118106;28;20721;-83
2022/01/28 01:12:30;;;;;;;5.45;4.93;;;3.10;99.90;;;;;;5117363;28;20199;-83
2022/01/28 01:14:57;;;;;;;9.73;5.88;;;3.10;99.90;;;;;;5118239;28;20194;-83
2022/01/28 01:17:32;;;;;;;5.20;4.70;;;3.10;99.90;;;;;;5117366;28;20203;-83
2022/01/28 01:20:15;;;;;;;6.55;4.72;;;3.10;99.90;;;;;;5117458;28;20227;-82
2022/01/28 01:22:49;;;;;;;7.70;4.53;;;3.00;99.90;;;;;;5119168;28;20201;-83
2022/01/28 01:25:23;;;;;;;3.60;2.88;;;3.10;99.90;;;;;;5118124;28;20296;-83
2022/01/28 01:27:55;;;;;;;3.08;2.42;;;3.00;99.90;;;;;;5116765;28;20195;-83
2022/01/28 01:30:22;;;;;;;4.70;4.15;;;3.00;99.90;;;;;;5116264;28;20225;-83
2022/01/28 01:32:49;;;;;;;5.15;3.88;;;3.10;99.90;;;;;;5102683;28;20230;-82
2022/01/28 01:35:16;;;;;;;5.40;4.20;;;3.10;99.90;;;;;;5103996;28;20284;-82
2022/01/28 01:37:42;;;;;;;5.20;3.92;;;3.00;99.90;;;;;;5103012;28;20223;-82
2022/01/28 01:40:11;;;;;;;6.47;3.88;;;3.00;99.90;;;;;;5102063;28;20746;-82
2022/01/28 01:42:46;;;;;;;4.15;2.55;;;3.00;99.90;;;;;;5102960;28;20229;-82
2022/01/28 01:53:24;;;;;;;4.35;3.95;;;2.90;99.90;;;;;;5100711;28;20764;-82
2022/01/28 01:55:51;;;;;;;4.95;4.65;;;2.90;99.90;;;;;;5100375;28;20221;-81
2022/01/28 01:58:24;;;;;;;6.00;4.13;;;2.90;99.90;;;;;;5100672;28;20220;-82
2022/01/28 02:00:52;;;;;;;4.93;4.50;;;2.90;99.90;;;;;;5100319;28;20342;-82
2022/01/28 02:03:19;;;;;;;3.33;3.05;;;2.80;99.90;;;;;;5099743;28;20214;-82
2022/01/28 02:05:46;;;;;;;5.05;4.68;;;2.80;99.90;;;;;;5100577;28;20223;-82
2022/01/28 02:08:12;;;;;;;5.65;4.50;;;2.80;99.90;;;;;;5099955;28;20206;-82
2022/01/28 02:10:39;;;;;;;5.10;3.90;;;2.70;99.90;;;;;;5100122;28;20384;-82
2022/01/28 02:13:06;;;;;;;3.72;3.42;;;2.70;99.90;;;;;;5099382;28;20207;-82
2022/01/28 02:15:33;;;;;;;3.97;3.58;;;2.70;99.90;;;;;;5099485;28;20207;-82
2022/01/28 02:18:01;;;;;;;6.82;4.05;;;2.70;99.90;;;;;;5100112;28;20198;-82
2022/01/28 02:20:33;;;;;;;5.70;3.80;;;2.70;99.90;;;;;;5100259;28;20235;-81
2022/01/28 02:23:00;;;;;;;3.55;3.17;;;2.70;99.90;;;;;;5095444;28;20229;-81
2022/01/28 02:25:29;;;;;;;4.70;4.20;;;2.70;99.90;;;;;;5099500;28;20273;-82
2022/01/28 02:27:58;;;;;;;3.28;2.80;;;2.70;99.90;;;;;;5099504;28;20206;-82
2022/01/28 02:30:25;;;;;;;5.50;5.00;;;2.70;99.90;;;;;;5102143;28;20635;-82
2022/01/28 02:32:57;;;;;;;5.68;4.78;;;2.70;99.90;;;;;;5102099;28;20209;-82
2022/01/28 02:35:24;;;;;;;4.55;3.38;;;2.70;99.90;;;;;;5102142;28;20202;-81
2022/01/28 02:37:52;;;;;;;5.75;5.07;;;2.70;99.90;;;;;;5101702;28;20214;-82
2022/01/28 02:40:19;;;;;;;5.60;5.10;;;2.60;99.90;;;;;;5101574;28;20257;-81
2022/01/28 02:42:56;;;;;;;6.18;5.05;;;2.60;99.90;;;;;;5101413;28;20233;-81
2022/01/28 02:45:30;;;;;;;6.18;4.50;;;2.60;99.90;;;;;;5100873;28;20251;-81
2022/01/28 02:48:01;;;;;;;5.50;4.78;;;2.60;99.90;;;;;;5081614;28;20206;-81
2022/01/28 02:50:30;;;;;;;7.88;6.15;;;2.60;99.90;;;;;;5099151;28;20240;-82
2022/01/28 02:53:07;;;;;;;5.75;5.13;;;2.50;99.90;;;;;;5100524;28;20303;-82
2022/01/28 02:55:39;;;;;;;6.55;5.82;;;2.50;99.90;;;;;;5100664;28;20436;-82
2022/01/28 02:58:18;;;;;;;6.68;5.68;;;2.50;99.90;;;;;;5100959;28;20200;-81
2022/01/28 03:00:47;;;;;;;4.60;4.20;;;2.50;99.90;;;;;;5099461;28;20224;-82
2022/01/28 03:03:18;;;;;;;7.50;4.10;;;2.50;99.90;;;;;;5101532;28;20208;-82
2022/01/28 03:05:45;;;;;;;6.35;5.30;;;2.40;99.90;;;;;;5103464;28;20209;-82
2022/01/28 03:08:13;;;;;;;9.02;6.63;;;2.40;99.90;;;;;;5104163;28;20204;-81
2022/01/28 03:10:53;;;;;;;6.95;4.97;;;2.30;99.90;;;;;;5103220;28;20216;-82
2022/01/28 03:16:16;;;;;;;5.15;4.40;;;2.30;99.90;;;;;;5092503;28;20243;-82
2022/01/28 03:18:49;;;;;;;4.97;4.57;;;2.30;99.90;;;;;;5103088;28;20759;-82
2022/01/28 03:21:24;;;;;;;6.75;5.20;;;2.30;99.90;;;;;;5102037;28;20213;-82
2022/01/28 03:23:52;;;;;;;4.95;4.55;;;2.30;99.90;;;;;;5104764;28;20221;-82
2022/01/28 03:26:19;;;;;;;4.45;4.03;;;2.30;99.90;;;;;;5104087;28;20637;-82
2022/01/28 03:28:46;;;;;;;5.30;4.82;;;2.30;99.90;;;;;;5103684;28;20197;-82
2022/01/28 03:31:13;;;;;;;9.40;4.82;;;2.30;99.90;;;;;;5103924;28;20213;-82
2022/01/28 03:33:40;;;;;;;5.53;5.13;;;2.40;99.90;;;;;;5104089;28;20205;-82
2022/01/28 03:36:09;;;;;;;7.75;5.53;;;2.50;99.90;;;;;;5104022;28;20201;-82
2022/01/28 03:38:37;;;;;;;5.65;4.25;;;2.50;99.90;;;;;;5103906;28;20208;-82
2022/01/28 03:41:06;;;;;;;7.03;3.50;;;2.50;99.90;;;;;;5103432;28;20296;-81
2022/01/28 03:43:33;;;;;;;4.20;3.90;;;2.60;99.90;;;;;;5103757;28;20210;-82
2022/01/28 03:45:59;;;;;;;4.50;4.15;;;2.60;99.90;;;;;;5104789;28;20209;-82
2022/01/28 03:48:26;;;;;;;4.43;3.97;;;2.60;99.90;;;;;;5103884;28;20215;-81
2022/01/28 03:50:53;;;;;;;4.40;4.00;;;2.60;99.90;;;;;;5083417;28;20231;-82
2022/01/28 03:53:19;;;;;;;6.30;4.25;;;2.70;99.90;;;;;;5084207;28;20211;-82
2022/01/28 03:55:46;;;;;;;3.90;3.53;;;2.60;99.90;;;;;;5103203;28;20214;-81
2022/01/28 03:58:15;;;;;;;4.32;3.92;;;2.60;99.90;;;;;;5103699;28;20211;-81
2022/01/28 04:00:41;;;;;;;5.13;4.30;;;2.60;99.90;;;;;;5102632;28;20222;-81
2022/01/28 04:03:12;;;;;;;5.25;4.03;;;2.70;99.90;;;;;;5103297;28;20216;-81
2022/01/28 04:11:29;;;;;;;4.82;4.20;;;2.70;99.90;;;;;;5096746;28;20246;-82
2022/01/28 04:14:06;;;;;;;4.72;4.32;;;2.80;99.90;;;;;;5103152;28;20226;-82
2022/01/28 04:17:19;;;;;;;7.00;6.30;;;2.80;99.90;;;;;;5104180;28;20211;-82
2022/01/28 04:19:20;;;;;;;5.88;4.80;;;2.90;99.90;;;;;;5103859;28;20223;-82
2022/01/28 04:21:47;;;;;;;6.75;4.68;;;2.90;99.90;;;;;;5102851;28;20225;-81
2022/01/28 04:24:15;;;;;;;4.70;4.30;;;2.90;99.90;;;;;;5103903;28;20203;-81
2022/01/28 04:26:42;;;;;;;4.85;4.38;;;2.90;99.90;;;;;;5103704;28;20288;-82
2022/01/28 04:29:11;;;;;;;5.93;5.32;;;2.70;99.90;;;;;;5102284;28;20217;-82
2022/01/28 04:31:42;;;;;;;5.72;5.07;;;2.70;99.90;;;;;;5103110;28;20200;-81
2022/01/28 04:34:09;;;;;;;8.27;6.43;;;2.60;99.90;;;;;;5101626;28;20257;-81
2022/01/28 04:36:42;;;;;;;6.85;5.07;;;2.60;99.90;;;;;;5103140;28;20209;-82
2022/01/28 04:39:15;;;;;;;6.82;4.70;;;2.60;99.90;;;;;;5101900;28;20581;-82
2022/01/28 04:41:53;;;;;;;8.57;5.25;;;2.50;99.90;;;;;;5101819;28;20213;-81
2022/01/28 04:44:28;;;;;;;4.90;4.10;;;2.40;99.90;;;;;;5101111;28;20210;-81
2022/01/28 04:47:01;;;;;;;12.30;7.25;;;2.40;99.90;;;;;;5101249;28;20261;-81
2022/01/28 04:49:38;;;;;;;5.68;4.85;;;2.40;99.90;;;;;;5100899;28;20232;-82
2022/01/28 04:52:34;;;;;;;7.55;5.65;;;2.40;99.90;;;;;;5100706;28;20202;-81
2022/01/28 04:55:08;;;;;;;5.55;4.95;;;2.40;99.90;;;;;;5101284;28;20233;-81
2022/01/28 04:57:47;;;;;;;7.68;5.57;;;2.40;99.90;;;;;;5101675;28;20206;-81
2022/01/28 05:00:24;;;;;;;4.75;4.38;;;2.30;99.90;;;;;;5100869;28;20212;-81
2022/01/28 05:03:16;;;;;;;4.03;3.42;;;2.30;99.90;;;;;;5101078;28;20220;-81
2022/01/28 05:09:07;;;;;;;6.47;5.20;;;2.30;99.90;;;;;;5084411;28;20208;-81
2022/01/28 05:23:08;;;;;;;5.50;3.28;;;2.30;99.90;;;;;;5100363;28;20219;-82
2022/01/28 05:28:17;;;;;;;4.72;3.42;;;2.20;99.90;;;;;;5104417;28;20215;-81
2022/01/28 05:30:44;;;;;;;5.90;4.57;;;2.20;99.90;;;;;;5103606;28;20240;-81
2022/01/28 05:33:12;;;;;;;4.80;4.20;;;2.20;99.90;;;;;;5104116;28;20201;-81
2022/01/28 05:35:38;;;;;;;4.60;4.20;;;2.20;99.90;;;;;;5105586;28;20210;-81
2022/01/28 05:38:05;;;;;;;5.03;3.97;;;2.20;99.90;;;;;;5103492;28;20207;-81
2022/01/28 05:40:32;;;;;;;5.22;4.00;;;2.10;99.90;;;;;;5104120;28;20231;-82
2022/01/28 05:42:59;;;;;;;2.55;2.42;;;2.10;99.90;;;;;;5103380;28;20202;-81
2022/01/28 05:45:26;;;;;;;5.60;4.88;;;2.20;99.90;;;;;;5104374;28;20208;-82
2022/01/28 05:47:52;;;;;;;7.35;5.15;;;2.10;99.90;;;;;;5104780;28;20202;-81
2022/01/28 05:50:21;;;;;;;7.60;5.75;;;2.10;99.90;;;;;;5104650;28;20237;-82
2022/01/28 05:52:47;;;;;;;7.85;5.60;;;2.10;99.90;;;;;;5104093;28;20198;-82
2022/01/28 05:55:14;;;;;;;6.28;5.68;;;2.10;99.90;;;;;;5084411;28;20209;-82
2022/01/28 05:57:41;;;;;;;9.77;5.70;;;2.10;99.90;;;;;;5100973;28;20201;-82
2022/01/28 06:00:09;;;;;;;9.65;5.40;;;2.00;99.90;;;;;;5107321;28;20226;-81
2022/01/28 06:02:36;;;;;;;9.25;5.80;;;2.00;99.90;;;;;;5103663;28;20229;-81
2022/01/28 06:05:02;;;;;;;8.23;5.20;;;2.00;99.90;;;;;;5083022;28;20207;-81
2022/01/28 06:07:30;;;;;;;7.70;5.95;;;2.00;99.90;;;;;;5096241;28;20249;-81
2022/01/28 06:09:57;;;;;;;10.90;6.57;;;2.00;99.90;;;;;;5104351;28;20225;-81
2022/01/28 06:12:24;;;;;;;7.47;6.70;;;2.00;99.90;;;;;;5101231;28;20224;-81
2022/01/28 06:14:51;;;;;;;8.52;6.20;;;2.00;99.90;;;;;;5098527;28;20204;-81
2022/01/28 06:17:17;;;;;;;14.75;7.22;;;2.00;99.90;;;;;;5097872;28;20202;-81
2022/01/28 06:19:44;;;;;;;9.13;6.85;;;2.00;99.90;;;;;;5098066;28;20241;-81
2022/01/28 06:22:11;;;;;;;8.20;7.40;;;2.00;99.90;;;;;;5097536;28;20232;-81
2022/01/28 06:24:39;;;;;;;7.35;6.55;;;2.00;99.90;;;;;;5097688;28;20210;-81
2022/01/28 06:27:06;;;;;;;9.27;5.43;;;1.90;99.90;;;;;;5077876;28;20221;-81
2022/01/28 06:29:33;;;;;;;8.23;7.43;;;1.90;99.90;;;;;;5095552;28;20225;-81
2022/01/28 06:32:00;;;;;;;10.30;7.13;;;2.00;99.90;;;;;;5096903;28;20256;-81
2022/01/28 06:34:27;;;;;;;9.07;5.97;;;1.90;99.90;;;;;;5097762;28;20584;-81
2022/01/28 06:36:54;;;;;;;5.43;4.90;;;1.90;99.90;;;;;;5098221;28;20224;-81
2022/01/28 06:39:20;;;;;;;9.07;6.20;;;1.90;99.90;;;;;;5098223;28;20224;-81
2022/01/28 06:41:48;;;;;;;10.05;7.15;;;1.90;99.90;;;;;;5097759;28;20224;-81
2022/01/28 06:44:15;;;;;;;9.35;6.03;;;2.00;99.90;;;;;;5097833;28;20214;-81
2022/01/28 06:46:42;;;;;;;6.82;5.13;;;2.10;99.90;;;;;;5097448;28;20209;-81
2022/01/28 06:49:09;;;;;;;8.70;5.95;;;1.90;99.90;;;;;;5096950;28;20233;-81
2022/01/28 06:51:37;;;;;;;5.35;4.65;;;1.90;99.90;;;;;;5096680;28;20205;-81
2022/01/28 06:54:04;;;;;;;7.72;5.18;;;1.90;99.90;;;;;;5096803;28;20211;-81
2022/01/28 06:56:31;;;;;;;9.32;6.22;;;1.90;99.90;;;;;;5097492;28;20201;-81
2022/01/28 06:58:59;;;;;;;7.30;5.38;;;2.00;99.90;;;;;;5096882;28;20207;-81
2022/01/28 07:01:26;;;;;;;7.00;5.00;;;2.00;99.90;;;;;;5096963;28;20230;-81
2022/01/28 07:03:52;;;;;;;7.82;6.20;;;2.00;99.90;;;;;;5097282;28;20591;-81
2022/01/28 07:06:19;;;;;;;15.65;6.75;;;2.00;99.90;;;;;;5096767;28;20580;-81
2022/01/28 07:08:46;;;;;;;7.72;6.40;;;2.00;99.90;;;;;;5096698;28;20201;-81
2022/01/28 07:11:13;;;;;;;9.85;7.40;;;2.00;99.90;;;;;;5097132;28;20196;-81
2022/01/28 07:13:40;;;;;;;8.70;5.78;;;2.00;99.90;;;;;;5096840;28;20224;-81
2022/01/28 07:16:08;;;;;;;8.75;6.18;;;2.10;99.90;;;;;;5096911;28;20565;-81
2022/01/28 07:18:35;;;;;;;12.73;6.57;;;2.10;99.90;;;;;;5096091;28;20201;-81
2022/01/28 07:21:02;;;;;;;8.10;6.90;;;2.10;99.90;;;;;;5095843;28;20231;-81
2022/01/28 07:23:28;;;;;;;9.20;6.85;;;2.10;99.90;;;;;;5096556;28;20203;-81
2022/01/28 07:25:55;;;;;;;5.25;4.75;;;2.10;99.90;;;;;;5096206;28;20286;-82
2022/01/28 07:28:24;;;;;;;12.55;6.85;;;2.00;99.90;;;;;;5096189;28;20210;-81
2022/01/28 07:30:50;;;;;;;10.32;6.90;;;2.10;99.90;;;;;;5095358;28;20225;-81
2022/01/28 07:33:18;;;;;;;7.55;6.72;;;2.20;99.90;;;;;;5096648;28;20199;-81
2022/01/28 07:35:46;;;;;;;9.10;6.20;;;2.20;99.90;;;;;;5096401;28;20856;-81
2022/01/28 07:38:13;;;;;;;11.30;7.20;;;2.20;99.90;;;;;;5097391;28;20234;-83
2022/01/28 07:40:40;;;;;;;7.55;5.47;;;2.30;99.90;;;;;;5095835;28;20233;-82
2022/01/28 07:43:07;;;;;;;10.00;6.47;;;2.30;99.90;;;;;;5097379;28;20219;-82
2022/01/28 07:45:33;;;;;;;10.70;6.95;;;2.30;99.90;;;;;;5099090;28;20201;-82
2022/01/28 07:48:00;;;;;;;8.98;6.88;;;2.30;99.90;;;;;;5098787;28;20203;-82
2022/01/28 07:50:28;;;;;;;9.07;6.65;;;2.40;99.90;;;;;;5097989;28;20708;-82
2022/01/28 07:52:55;;;;;;;8.85;6.50;;;2.50;99.90;;;;;;5098369;28;20204;-82
2022/01/28 07:55:22;;;;;;;3.20;2.90;;;2.50;99.90;;;;;;5098658;28;20206;-81
2022/01/28 07:57:48;;;;;;;9.00;7.00;;;2.50;99.90;;;;;;5098191;28;20206;-82
2022/01/28 08:00:16;;;;;;;8.18;5.70;;;2.50;99.90;;;;;;5098928;28;20612;-82
2022/01/28 08:02:43;;;;;;;11.10;8.50;;;2.50;99.90;;;;;;5098383;28;20237;-82
2022/01/28 08:05:10;;;;;;;13.10;7.22;;;2.50;99.90;;;;;;5098782;28;20260;-82
2022/01/28 08:07:38;;;;;;;7.93;6.47;;;2.60;99.90;;;;;;5096979;28;20213;-82
2022/01/28 08:10:05;;;;;;;8.20;5.53;;;2.70;99.90;;;;;;5096774;28;20656;-82
2022/01/28 08:12:32;;;;;;;8.50;6.90;;;2.60;99.90;;;;;;5095733;28;20199;-80
2022/01/28 08:14:59;;;;;;;10.32;6.43;;;2.70;99.90;;;;;;5082957;28;20203;-80
2022/01/28 08:17:25;;;;;;;8.20;6.63;;;2.80;99.90;;;;;;5090646;28;20206;-79
2022/01/28 08:19:52;;;;;;;9.15;7.40;;;2.90;99.90;;;;;;5094458;28;20221;-79
2022/01/28 08:22:20;;;;;;;8.00;7.25;;;3.00;99.90;;;;;;5093623;28;20231;-80
2022/01/28 08:24:48;;;;;;;7.43;6.75;;;3.00;99.90;;;;;;5094726;28;20620;-81
2022/01/28 08:27:15;;;;;;;11.38;7.32;;;3.10;99.90;;;;;;5090715;28;20223;-79
2022/01/28 08:29:42;;;;;;;10.07;6.22;;;3.10;99.90;;;;;;5085279;28;20222;-79
2022/01/28 08:32:08;;;;;;;7.15;6.43;;;3.30;99.90;;;;;;5087692;28;20189;-80
2022/01/28 08:34:35;;;;;;;9.23;5.80;;;3.20;99.90;;;;;;5089396;28;20203;-80
2022/01/28 08:37:04;;;;;;;9.32;6.97;;;3.20;99.90;;;;;;5085278;28;20215;-81
2022/01/28 08:39:31;;;;;;;7.32;6.50;;;3.30;99.90;;;;;;5082138;28;20219;-81
2022/01/28 08:41:59;;;;;;;5.28;4.78;;;3.40;99.90;;;;;;5088681;28;20308;-80
2022/01/28 08:44:27;;;;;;;5.65;5.10;;;3.30;99.90;;;;;;5088406;28;20198;-79
2022/01/28 08:46:54;;;;;;;7.05;4.93;;;3.40;99.90;;;;;;5095154;28;20235;-79
2022/01/28 08:49:20;;;;;;;11.18;5.95;;;3.40;99.90;;;;;;5098373;28;20234;-80
2022/01/28 08:51:48;;;;;;;6.00;4.22;;;3.50;99.90;;;;;;5096110;28;20279;-79
2022/01/28 08:54:15;;;;;;;8.02;6.07;;;3.40;99.90;;;;;;5096215;28;20210;-80
2022/01/28 08:56:42;;;;;;;5.80;5.20;;;3.40;99.90;;;;;;5097542;28;20200;-79
2022/01/28 08:59:10;;;;;;;8.48;4.35;;;3.40;99.90;;;;;;5098314;28;20579;-79
2022/01/28 09:01:37;;;;;;;10.15;4.72;;;3.40;99.90;;;;;;5097372;28;20204;-79
2022/01/28 09:04:04;;;;;;;5.90;5.28;;;3.40;99.90;;;;;;5098570;28;20574;-79
2022/01/28 09:06:31;;;;;;;6.20;5.20;;;3.50;99.90;;;;;;5099589;28;20676;-79
2022/01/28 09:09:00;;;;;;;6.35;5.75;;;3.50;99.90;;;;;;5098903;28;20207;-79
2022/01/28 09:11:46;;;;;;;7.65;5.15;;;3.50;99.90;;;;;;5099899;28;20196;-79
2022/01/28 09:14:15;;;;;;;6.75;4.57;;;3.50;99.90;;;;;;5099447;28;20223;-79
2022/01/28 09:16:43;;;;;;;6.60;5.97;;;3.50;99.90;;;;;;5100184;28;20212;-79
2022/01/28 09:19:10;;;;;;;4.20;3.40;;;3.70;99.90;;;;;;5099210;28;20220;-79
2022/01/28 09:21:36;;;;;;;6.65;4.55;;;3.70;99.90;;;;;;5100574;28;20211;-79
2022/01/28 09:24:03;;;;;;;8.82;6.03;;;3.70;99.90;;;;;;5100837;28;20212;-80
2022/01/28 09:26:30;;;;;;;6.55;4.15;;;3.80;99.90;;;;;;5100979;28;20203;-79
2022/01/28 09:28:57;;;;;;;6.60;4.80;;;3.90;99.90;;;;;;5100927;28;20204;-80
2022/01/28 09:31:25;;;;;;;5.35;4.30;;;3.90;99.90;;;;;;5100679;28;20208;-80
2022/01/28 09:33:52;;;;;;;7.63;4.60;;;4.00;99.90;;;;;;5100833;28;20211;-80
2022/01/28 09:36:19;;;;;;;9.82;5.18;;;3.90;99.90;;;;;;5101060;28;20215;-80
2022/01/28 09:38:46;;;;;;;7.10;4.68;;;4.00;99.90;;;;;;5100470;28;20217;-80
2022/01/28 09:41:13;;;;;;;6.05;4.78;;;4.10;99.90;;;;;;5100308;28;20267;-79
2022/01/28 09:43:41;;;;;;;4.40;2.78;;;4.30;99.90;;;;;;5100837;28;20234;-79
2022/01/28 09:46:08;;;;;;;5.95;5.28;;;4.40;99.90;;;;;;5100549;28;20204;-80
2022/01/28 09:48:36;;;;;;;6.53;4.95;;;4.40;99.90;;;;;;5099834;28;20212;-80
2022/01/28 09:51:04;;;;;;;5.20;4.68;;;4.50;99.90;;;;;;5100179;28;20224;-79
2022/01/28 09:53:31;;;;;;;5.57;4.65;;;4.70;99.90;;;;;;5099875;28;20208;-80
2022/01/28 09:55:58;;;;;;;5.47;4.95;;;4.80;99.90;;;;;;5099991;28;20217;-80
2022/01/28 09:58:26;;;;;;;5.60;5.05;;;5.00;99.90;;;;;;5100220;28;20273;-80
2022/01/28 10:00:53;;;;;;;4.80;4.00;;;5.10;99.90;;;;;;5100447;28;20604;-80
2022/01/28 10:03:21;;;;;;;4.43;3.30;;;5.30;99.90;;;;;;5100309;28;20228;-80
2022/01/28 10:05:51;;;;;;;6.28;2.67;;;5.40;99.90;;;;;;5100693;28;20718;-80
2022/01/28 10:08:19;;;;;;;5.57;3.03;;;5.50;99.90;;;;;;5099581;28;20210;-80
2022/01/28 10:10:59;;;;;;;5.20;2.83;;;5.30;99.90;;;;;;5099328;28;20228;-80
2022/01/28 10:13:33;;;;;;;6.43;3.55;;;5.20;99.90;;;;;;5099649;28;20261;-80
2022/01/28 10:16:09;;;;;;;1.58;1.55;;;5.30;99.90;;;;;;5099453;28;20207;-80
2022/01/28 10:18:39;;;;;;;2.63;1.75;;;5.00;99.90;;;;;;5099534;28;20226;-80
2022/01/28 10:21:25;;;;;;;2.80;1.60;;;5.00;99.90;;;;;;5098694;28;20232;-80
2022/01/28 10:24:07;;;;;;;3.58;2.90;;;4.90;99.90;;;;;;5099138;28;20228;-80
2022/01/28 10:26:37;;;;;;;1.73;1.63;;;4.80;99.90;;;;;;5099492;28;20207;-80
2022/01/28 10:29:05;;;;;;;5.38;4.22;;;4.90;99.90;;;;;;5099425;28;20208;-80
2022/01/28 10:31:42;;;;;;;3.03;2.65;;;5.00;99.90;;;;;;5099891;28;20231;-80
2022/01/28 10:34:15;;;;;;;2.78;1.88;;;5.10;99.90;;;;;;5099577;28;20214;-80
2022/01/28 10:36:44;;;;;;;4.20;2.78;;;5.20;99.90;;;;;;5099951;28;20244;-80
2022/01/28 10:39:16;;;;;;;2.90;2.30;;;5.10;99.90;;;;;;5099806;28;20227;-79
2022/01/28 10:41:58;;;;;;;2.72;2.15;;;5.00;99.90;;;;;;5099592;28;20583;-79
2022/01/28 10:44:26;;;;;;;2.20;2.03;;;5.10;99.90;;;;;;5099498;28;20216;-79
2022/01/28 10:46:59;;;;;;;2.70;1.60;;;5.20;99.90;;;;;;5099645;28;20220;-80
2022/01/28 10:49:31;;;;;;;2.40;2.20;;;5.20;99.90;;;;;;5099696;28;20251;-80
2022/01/28 10:52:07;;;;;;;3.83;2.55;;;5.50;99.90;;;;;;5099286;28;20208;-80
2022/01/28 10:54:36;;;;;;;2.30;1.50;;;5.80;99.90;;;;;;5099815;28;20214;-80
2022/01/28 10:57:04;;;;;;;2.33;2.13;;;6.00;99.90;;;;;;5098754;28;20214;-80
2022/01/28 10:59:33;;;;;;;4.93;2.75;;;5.90;99.90;;;;;;5099053;28;20226;-80
2022/01/28 11:02:00;;;;;;;5.20;1.98;;;5.90;99.90;;;;;;5098298;28;20204;-81
2022/01/28 11:04:27;;;;;;;2.13;1.98;;;6.00;99.90;;;;;;5097589;28;20235;-80
2022/01/28 11:06:57;;;;;;;2.92;2.10;;;6.30;99.90;;;;;;5099132;28;20205;-80
2022/01/28 11:09:26;;;;;;;4.25;2.58;;;6.70;99.90;;;;;;5098308;28;20223;-81
2022/01/28 11:11:54;;;;;;;2.55;1.25;;;6.70;99.90;;;;;;5098626;28;20207;-81
2022/01/28 11:14:22;;;;;;;4.15;1.77;;;6.50;99.90;;;;;;5098323;28;20292;-81
2022/01/28 11:16:49;;;;;;;1.23;1.15;;;6.20;99.10;;;;;;5098631;28;20214;-80
2022/01/28 11:19:19;;;;;;;2.10;1.38;;;6.00;99.30;;;;;;5098145;28;20224;-80
2022/01/28 11:21:56;;;;;;;5.00;1.88;;;5.80;99.20;;;;;;5098659;28;20208;-81
2022/01/28 11:24:36;;;;;;;3.80;3.47;;;5.70;99.40;;;;;;5099702;28;20249;-80
2022/01/28 11:27:10;;;;;;;2.85;1.20;;;5.80;99.90;;;;;;5098654;28;20204;-81
2022/01/28 11:29:37;;;;;;;4.50;1.88;;;5.70;99.90;;;;;;5098695;28;20273;-80
2022/01/28 11:32:13;;;;;;;1.83;1.73;;;6.00;99.90;;;;;;5097988;28;20211;-80
2022/01/28 11:34:56;;;;;;;5.55;2.22;;;6.30;99.70;;;;;;5098226;28;20204;-80
2022/01/28 11:37:27;;;;;;;1.88;1.75;;;6.70;99.90;;;;;;5099061;28;20200;-80
2022/01/28 11:40:07;;;;;;;2.75;1.88;;;7.20;99.60;;;;;;5098297;28;20228;-81
2022/01/28 11:42:34;;;;;;;3.42;2.20;;;7.50;99.00;;;;;;5096171;28;20207;-80
2022/01/28 11:45:02;;;;;;;3.53;1.70;;;7.40;98.90;;;;;;5095284;28;20715;-80
2022/01/28 11:47:31;;;;;;;3.40;2.30;;;7.30;98.40;;;;;;5095248;28;20204;-80
2022/01/28 11:50:00;;;;;;;5.15;2.50;;;7.20;98.40;;;;;;5094860;28;20863;-80
2022/01/28 11:52:30;;;;;;;2.17;1.90;;;6.90;98.90;;;;;;5095140;28;20207;-80
2022/01/28 11:55:32;;;;;;;7.28;1.73;;;6.40;97.50;;;;;;5097590;28;20746;-80
2022/01/28 11:58:02;;;;;;;1.73;1.50;;;6.20;97.80;;;;;;5097530;28;20210;-80
2022/01/28 12:00:32;;;;;;;4.30;2.53;;;6.00;98.50;;;;;;5116502;22;20238;-82
2022/01/28 12:02:59;;;;;;;3.55;1.92;;;6.00;99.10;;;;;;5043061;28;20241;-81
2022/01/28 12:05:42;;;;;;;2.88;1.55;;;5.80;99.10;;;;;;5043965;28;20210;-82
2022/01/28 12:08:11;;;;;;;2.40;1.50;;;5.80;99.20;;;;;;5045684;28;20212;-82
2022/01/28 12:10:42;;;;;;;1.98;1.70;;;5.60;99.40;;;;;;5056454;28;20232;-82
2022/01/28 12:13:13;;;;;;;5.90;2.55;;;5.40;99.90;;;;;;5063824;28;20228;-82
2022/01/28 12:16:10;;;;;;;5.22;4.13;;;5.30;99.90;;;;;;5062672;28;20202;-81
2022/01/28 12:18:55;;;;;;;5.43;2.00;;;5.20;99.90;;;;;;5062923;28;20205;-82
2022/01/28 12:21:24;;;;;;;2.25;1.23;;;5.00;99.90;;;;;;5062465;28;20233;-81
2022/01/28 12:23:53;;;;;;;2.70;1.50;;;5.00;99.90;;;;;;5062746;28;20256;-82
2022/01/28 12:26:22;;;;;;;2.80;2.33;;;5.00;99.90;;;;;;5062454;28;20213;-81
2022/01/28 12:28:54;;;;;;;2.95;1.75;;;5.60;99.90;;;;;;5062543;28;20220;-82
2022/01/28 12:31:27;;;;;;;1.45;1.35;;;6.00;99.90;;;;;;5062536;28;20248;-82
2022/01/28 12:33:56;;;;;;;2.75;1.48;;;6.60;99.00;;;;;;5062821;28;20201;-82
2022/01/28 12:36:24;;;;;;;4.78;1.92;;;7.30;98.40;;;;;;5063175;28;20217;-82
2022/01/28 12:39:01;;;;;;;4.78;1.77;;;7.40;97.20;;;;;;5062253;28;20206;-82
2022/01/28 12:41:40;;;;;;;3.80;2.10;;;7.30;97.10;;;;;;5063026;28;20231;-82
2022/01/28 12:44:08;;;;;;;4.32;1.77;;;7.40;98.10;;;;;;5062389;28;20304;-82
2022/01/28 12:46:37;;;;;;;1.75;1.65;;;7.90;97.20;;;;;;5062527;28;20690;-82
2022/01/28 12:49:03;;;;;;;1.40;1.30;;;7.80;95.90;;;;;;5062505;28;20214;-82
2022/01/28 12:51:36;;;;;;;2.28;1.70;;;7.20;96.20;;;;;;5061202;28;20222;-82
2022/01/28 12:54:03;;;;;;;1.77;1.67;;;6.80;97.10;;;;;;5062575;28;20711;-82
2022/01/28 12:56:34;;;;;;;7.68;1.40;;;6.50;97.20;;;;;;5062235;28;20205;-81
2022/01/28 12:59:01;;;;;;;2.72;2.08;;;7.30;97.00;;;;;;5062233;28;20208;-82
2022/01/28 13:01:28;;;;;;;1.63;1.52;;;7.90;95.80;;;;;;5061751;28;20233;-82
2022/01/28 13:04:04;;;;;;;2.35;2.10;;;8.10;94.90;;;;;;5061679;28;20230;-82
2022/01/28 13:06:43;;;;;;;1.92;1.67;;;8.60;94.30;;;;;;5062275;28;20186;-81
2022/01/28 13:09:15;;;;;;;2.00;1.80;;;8.50;93.50;;;;;;5061539;28;20561;-82
2022/01/28 13:11:45;;;;;;;2.22;1.40;;;7.80;94.20;;;;;;5061406;28;20685;-81
2022/01/28 13:14:13;;;;;;;2.83;2.38;;;6.70;95.00;;;;;;5062020;28;20201;-82
2022/01/28 13:16:42;;;;;;;2.60;2.40;;;6.50;96.90;;;;;;5062178;28;20725;-81
2022/01/28 13:19:10;;;;;;;4.15;2.90;;;6.50;98.00;;;;;;5062708;28;20216;-82
2022/01/28 13:21:37;;;;;;;2.40;2.00;;;6.00;98.10;;;;;;5062355;28;20205;-80
2022/01/28 13:24:06;;;;;;;2.03;1.45;;;5.70;98.70;;;;;;5062278;28;20643;-81
2022/01/28 13:26:33;;;;;;;2.85;2.65;;;5.50;99.70;;;;;;5063222;28;20212;-82
2022/01/28 13:29:10;;;;;;;3.17;1.67;;;5.70;99.90;;;;;;5066499;28;20208;-82
2022/01/28 13:31:37;;;;;;;1.42;1.35;;;5.80;99.50;;;;;;5066895;28;20572;-81
2022/01/28 13:34:07;;;;;;;2.17;1.95;;;5.70;99.10;;;;;;5066209;28;20194;-82
2022/01/28 13:36:48;;;;;;;2.38;2.15;;;5.50;99.80;;;;;;5065034;28;20255;-80
2022/01/28 13:39:16;;;;;;;3.95;3.65;;;5.40;99.90;;;;;;5066207;28;20198;-82
2022/01/28 13:41:45;;;;;;;6.47;3.05;;;5.40;99.90;;;;;;5066147;28;20222;-81
2022/01/28 13:44:30;;;;;;;2.90;2.00;;;5.40;99.90;;;;;;5064647;28;20281;-81
2022/01/28 13:47:44;;;;;;;4.75;3.50;;;5.20;99.90;;;;;;5042471;28;20210;-81
2022/01/28 13:50:11;;;;;;;8.05;3.10;;;5.10;99.90;;;;;;5046301;28;20246;-81
2022/01/28 13:52:49;;;;;;;10.60;2.83;;;4.90;99.90;;;;;;5045144;28;20582;-82
2022/01/28 13:55:32;;;;;;;3.25;2.65;;;4.70;99.90;;;;;;5053880;28;20215;-83
2022/01/28 13:58:02;;;;;;;3.35;2.95;;;4.70;99.90;;;;;;5066316;28;20197;-83
2022/01/28 14:00:43;;;;;;;5.53;3.85;;;4.80;99.90;;;;;;5091412;28;20216;-85
2022/01/28 14:03:16;;;;;;;3.60;3.38;;;4.90;99.90;;;;;;5077721;28;20208;-83
2022/01/28 14:05:54;;;;;;;5.40;2.45;;;4.90;99.90;;;;;;5068777;28;20210;-84